KFRI/FRI METAR and TAF weather

Enter ICAO airport designator
Station Type Date Time Source
KFRI METAR 2021/09/27 06:56 UTC NOAA

KFRI 270656Z AUTO 25005KT 10SM CLR 21/09 A2983 RMK AO2 SLP088 T02050088


Station Type Date Time Source
KFRI Decoded METAR 2021/09/27 06:56 UTC NOAA

Fort Riley, Marshall AAF Ft Riley, KS, United States (KFRI) 39-03-20N 096-45-51W
Sep 27, 2021 - 02:56 AM EDT / 2021.09.27 0656 UTC
Wind: from the WSW (250 degrees) at 6 MPH (5 KT):0
Visibility: 10 mile(s):0
Sky conditions: clear
Temperature: 68.9 F (20.5 C)
Dew Point: 47.8 F (8.8 C)
Relative Humidity: 46%
Pressure (altimeter): 29.83 in. Hg (1010 hPa)
ob: KFRI 270656Z AUTO 25005KT 10SM CLR 21/09 A2983 RMK AO2 SLP088 T02050088
cycle: 7

Station Type Date Time Source
KFRI TAF 2021/09/27 05:18 UTC NOAA

TAF KFRI 270500Z 2705/2811 20012KT 9999 SKC WS020/20050KT QNH2976INS
BECMG 2713/2714 20010KT 9999 SKC QNH2982INS TX32/2721Z TN17/2711Z

Example: see airport list